createdAt,value
2023-05-01T00:00:52.848Z,31.27
2023-05-01T00:01:52.874Z,31.25
2023-05-01T00:02:53.080Z,31.24
2023-05-01T00:03:53.276Z,31.25
2023-05-01T00:04:53.008Z,31.25
2023-05-01T00:05:53.007Z,31.25
2023-05-01T00:06:53.062Z,31.24
2023-05-01T00:07:53.110Z,31.25
2023-05-01T00:08:53.095Z,31.24
2023-05-01T00:09:53.113Z,31.26
2023-05-01T00:10:53.142Z,31.27
2023-05-01T00:11:53.170Z,31.27
2023-05-01T00:12:53.200Z,31.30
2023-05-01T00:13:53.237Z,31.27
2023-05-01T00:14:53.264Z,31.27
2023-05-01T00:15:53.394Z,31.28
2023-05-01T00:16:53.353Z,31.26
2023-05-01T00:17:54.040Z,31.27
2023-05-01T00:18:53.387Z,31.25
2023-05-01T00:19:53.571Z,31.28
2023-05-01T00:20:53.448Z,31.29
2023-05-01T00:21:53.476Z,31.29
2023-05-01T00:22:53.497Z,31.30
2023-05-01T00:23:53.527Z,31.32
2023-05-01T00:24:53.565Z,31.32
2023-05-01T00:25:53.643Z,31.31
2023-05-01T00:26:54.496Z,31.29
2023-05-01T00:27:54.492Z,31.28
2023-05-01T00:28:53.668Z,31.29
2023-05-01T00:29:53.789Z,31.31
2023-05-01T00:30:53.730Z,31.29
2023-05-01T00:31:53.783Z,31.29
2023-05-01T00:32:53.862Z,31.32
2023-05-01T00:33:53.822Z,31.30
2023-05-01T00:34:53.847Z,31.31
2023-05-01T00:35:53.882Z,31.29
2023-05-01T00:36:53.911Z,31.33
2023-05-01T00:37:54.000Z,31.30
2023-05-01T00:38:53.976Z,31.32
2023-05-01T00:39:54.178Z,31.32
2023-05-01T00:40:54.035Z,31.31
2023-05-01T00:41:54.068Z,31.32
2023-05-01T00:42:54.100Z,31.32
2023-05-01T00:43:54.121Z,31.33
2023-05-01T00:44:54.999Z,31.33
2023-05-01T00:45:54.228Z,31.34
2023-05-01T00:46:54.214Z,31.33
2023-05-01T00:47:54.356Z,31.35
2023-05-01T00:48:54.262Z,31.34
2023-05-01T00:49:54.667Z,31.37
2023-05-01T00:50:54.343Z,31.35
2023-05-01T00:51:54.367Z,31.36
2023-05-01T00:52:54.396Z,31.35
2023-05-01T00:53:54.418Z,31.34
2023-05-01T00:54:54.468Z,31.34
2023-05-01T00:55:54.491Z,31.34
2023-05-01T00:56:54.538Z,31.33
2023-05-01T00:57:54.572Z,31.33
2023-05-01T00:58:54.599Z,31.35
2023-05-01T00:59:55.021Z,31.33
2023-05-01T01:00:54.746Z,31.33
2023-05-01T01:01:56.308Z,31.34
2023-05-01T01:02:54.728Z,31.35
2023-05-01T01:03:54.862Z,31.35
2023-05-01T01:04:54.810Z,31.34
2023-05-01T01:05:54.824Z,31.38
2023-05-01T01:06:54.846Z,31.35
2023-05-01T01:07:54.878Z,31.36
2023-05-01T01:08:54.926Z,31.36
2023-05-01T01:09:55.309Z,31.36
2023-05-01T01:10:54.976Z,31.37
2023-05-01T01:11:55.007Z,31.36
2023-05-01T01:12:55.039Z,31.35
2023-05-01T01:13:55.069Z,31.37
2023-05-01T01:14:55.109Z,31.34
2023-05-01T01:15:55.139Z,31.36
2023-05-01T01:16:55.228Z,31.35
2023-05-01T01:17:55.244Z,31.37
2023-05-01T01:18:55.231Z,31.38
2023-05-01T01:19:55.410Z,31.38
2023-05-01T01:20:55.293Z,31.38
2023-05-01T01:21:55.335Z,31.38
2023-05-01T01:22:55.377Z,31.36
2023-05-01T01:23:55.405Z,31.35
2023-05-01T01:24:55.443Z,31.39
2023-05-01T01:25:55.476Z,31.38
2023-05-01T01:26:55.602Z,31.36
2023-05-01T01:27:55.576Z,31.37
2023-05-01T01:28:55.609Z,31.39
2023-05-01T01:29:56.086Z,31.40
2023-05-01T01:30:55.719Z,31.39
2023-05-01T01:31:55.739Z,31.39
2023-05-01T01:32:55.784Z,31.38
2023-05-01T01:33:55.837Z,31.38
2023-05-01T01:34:55.856Z,31.39
2023-05-01T01:35:55.905Z,31.39
2023-05-01T01:36:55.952Z,31.39
2023-05-01T01:37:55.976Z,31.41
2023-05-01T01:38:56.009Z,31.39
2023-05-01T01:39:56.266Z,31.41
2023-05-01T01:40:56.075Z,31.41
2023-05-01T01:41:56.109Z,31.39
2023-05-01T01:42:56.142Z,31.40
2023-05-01T01:43:56.165Z,31.38
2023-05-01T01:44:56.215Z,31.40
2023-05-01T01:45:56.337Z,31.38
2023-05-01T01:46:56.280Z,31.37
2023-05-01T01:47:56.370Z,31.41
2023-05-01T01:48:56.337Z,31.41
2023-05-01T01:49:56.615Z,31.40
2023-05-01T01:50:56.401Z,31.39
2023-05-01T01:51:56.436Z,31.40
2023-05-01T01:52:56.455Z,31.40
2023-05-01T01:53:56.482Z,31.42
2023-05-01T01:54:56.505Z,31.40
2023-05-01T01:55:56.568Z,31.39
2023-05-01T01:56:56.552Z,31.41
2023-05-01T01:57:56.581Z,31.41
2023-05-01T01:58:56.603Z,31.39
2023-05-01T01:59:56.786Z,31.43
2023-05-01T02:00:56.718Z,31.39
2023-05-01T02:01:56.723Z,31.40
2023-05-01T02:02:56.782Z,31.42
2023-05-01T02:03:56.835Z,31.42
2023-05-01T02:04:56.795Z,31.43
2023-05-01T02:05:56.859Z,31.43
2023-05-01T02:06:56.875Z,31.42
2023-05-01T02:07:56.910Z,31.40
2023-05-01T02:08:56.950Z,31.41
2023-05-01T02:09:57.298Z,31.42
2023-05-01T02:10:57.394Z,31.42
2023-05-01T02:11:57.108Z,31.41
2023-05-01T02:12:57.057Z,31.42
2023-05-01T02:13:57.078Z,31.42
2023-05-01T02:14:57.114Z,31.43
2023-05-01T02:15:57.188Z,31.41
2023-05-01T02:16:57.180Z,31.42
2023-05-01T02:17:57.278Z,31.43
2023-05-01T02:18:57.250Z,31.42
2023-05-01T02:19:57.506Z,31.43
2023-05-01T02:20:57.328Z,31.42
2023-05-01T02:21:57.359Z,31.44
2023-05-01T02:22:57.381Z,31.41
2023-05-01T02:23:57.426Z,31.44
2023-05-01T02:24:57.481Z,31.43
2023-05-01T02:25:57.482Z,31.42
2023-05-01T02:26:58.051Z,31.42
2023-05-01T02:27:57.561Z,31.41
2023-05-01T02:28:57.585Z,31.42
2023-05-01T02:29:57.991Z,31.44
2023-05-01T02:30:57.645Z,31.44
2023-05-01T02:31:58.652Z,31.44
2023-05-01T02:32:57.767Z,31.45
2023-05-01T02:33:57.735Z,31.44
2023-05-01T02:34:57.774Z,31.44
2023-05-01T02:35:57.802Z,31.45
2023-05-01T02:36:57.833Z,31.44
2023-05-01T02:37:57.861Z,31.43
2023-05-01T02:38:57.899Z,31.44
2023-05-01T02:39:58.084Z,31.45
2023-05-01T02:40:57.955Z,31.42
2023-05-01T02:41:57.984Z,31.45
2023-05-01T02:42:58.016Z,31.44
2023-05-01T02:43:58.047Z,31.46
2023-05-01T02:44:58.084Z,31.44
2023-05-01T02:45:58.179Z,31.45
2023-05-01T02:46:58.202Z,31.42
2023-05-01T02:47:58.206Z,31.44
2023-05-01T02:48:58.206Z,31.46
2023-05-01T02:49:58.433Z,31.47
2023-05-01T02:50:58.342Z,31.46
2023-05-01T02:51:58.323Z,31.46
2023-05-01T02:52:58.350Z,31.45
2023-05-01T02:53:58.390Z,31.46
2023-05-01T02:54:58.428Z,31.47
2023-05-01T02:55:58.552Z,31.46
2023-05-01T02:56:58.513Z,31.45
2023-05-01T02:57:58.536Z,31.46
2023-05-01T02:58:58.579Z,31.47
2023-05-01T02:59:58.662Z,31.46
2023-05-01T03:00:58.700Z,31.45
2023-05-01T03:01:58.700Z,31.46
2023-05-01T03:02:58.796Z,31.47
2023-05-01T03:03:58.864Z,31.48
2023-05-01T03:04:58.822Z,31.48
2023-05-01T03:05:59.102Z,31.45
2023-05-01T03:06:58.913Z,31.46
2023-05-01T03:07:58.925Z,31.46
2023-05-01T03:08:59.044Z,31.45
2023-05-01T03:09:58.989Z,31.46
2023-05-01T03:10:59.030Z,31.47
2023-05-01T03:11:59.075Z,31.47
2023-05-01T03:12:59.104Z,31.48
2023-05-01T03:13:59.149Z,31.48
2023-05-01T03:14:59.173Z,31.48
2023-05-01T03:15:59.228Z,31.46
2023-05-01T03:16:59.252Z,31.49
2023-05-01T03:17:59.308Z,31.49
2023-05-01T03:19:00.067Z,31.47
2023-05-01T03:19:59.363Z,31.49
2023-05-01T03:20:59.466Z,31.51
2023-05-01T03:21:59.425Z,31.49
2023-05-01T03:22:59.474Z,31.50
2023-05-01T03:23:59.512Z,31.49
2023-05-01T03:24:59.541Z,31.49
2023-05-01T03:25:59.586Z,31.48
2023-05-01T03:26:59.599Z,31.51
2023-05-01T03:27:59.640Z,31.51
2023-05-01T03:28:59.662Z,31.50
2023-05-01T03:29:59.690Z,31.49
2023-05-01T03:30:59.738Z,31.49
2023-05-01T03:31:59.818Z,31.51
2023-05-01T03:32:59.930Z,31.50
2023-05-01T03:33:59.848Z,31.52
2023-05-01T03:34:59.992Z,31.51
2023-05-01T03:35:59.927Z,31.51
2023-05-01T03:36:59.949Z,31.51
2023-05-01T03:37:59.986Z,31.51
2023-05-01T03:39:00.027Z,31.52
2023-05-01T03:40:00.070Z,31.51
2023-05-01T03:41:00.102Z,31.50
2023-05-01T03:42:00.143Z,31.53
2023-05-01T03:43:00.175Z,31.52
2023-05-01T03:44:00.206Z,31.52
2023-05-01T03:45:00.241Z,31.52
2023-05-01T03:46:00.338Z,31.52
2023-05-01T03:47:00.320Z,31.52
2023-05-01T03:48:00.386Z,31.54
2023-05-01T03:49:00.396Z,31.53
2023-05-01T03:50:00.438Z,31.53
2023-05-01T03:51:00.491Z,31.52
2023-05-01T03:52:00.521Z,31.54
2023-05-01T03:53:00.552Z,31.54
2023-05-01T03:54:00.605Z,31.53
2023-05-01T03:55:00.629Z,31.54
2023-05-01T03:56:00.756Z,31.54
2023-05-01T03:57:00.744Z,31.54
2023-05-01T03:58:00.748Z,31.53
2023-05-01T03:59:00.798Z,31.53
2023-05-01T04:00:01.158Z,31.57
2023-05-01T04:01:00.950Z,31.55
2023-05-01T04:02:00.967Z,31.57
2023-05-01T04:03:01.119Z,31.58
2023-05-01T04:04:01.075Z,31.57
2023-05-01T04:05:01.071Z,31.58
2023-05-01T04:06:01.134Z,31.56
2023-05-01T04:07:01.150Z,31.54
2023-05-01T04:08:01.191Z,31.57
2023-05-01T04:09:01.237Z,31.55
2023-05-01T04:10:01.283Z,31.59
2023-05-01T04:11:02.087Z,31.58
2023-05-01T04:12:01.377Z,31.56
2023-05-01T04:13:01.426Z,31.57
2023-05-01T04:14:01.555Z,31.59
2023-05-01T04:15:01.525Z,31.59
2023-05-01T04:16:02.140Z,31.57
2023-05-01T04:17:01.641Z,31.59
2023-05-01T04:18:01.843Z,31.59
2023-05-01T04:19:01.705Z,31.60
2023-05-01T04:20:01.751Z,31.58
2023-05-01T04:21:01.787Z,31.58
2023-05-01T04:22:02.096Z,31.55
2023-05-01T04:23:01.892Z,31.59
2023-05-01T04:24:01.938Z,31.59
2023-05-01T04:25:01.985Z,31.56
2023-05-01T04:26:02.032Z,31.59
2023-05-01T04:27:02.082Z,31.57
2023-05-01T04:28:02.134Z,31.57
2023-05-01T04:29:02.180Z,31.60
2023-05-01T04:30:02.227Z,31.57
2023-05-01T04:31:02.309Z,31.57
2023-05-01T04:32:02.364Z,31.58
2023-05-01T04:33:02.423Z,31.59
2023-05-01T04:34:02.400Z,31.58
2023-05-01T04:35:04.302Z,31.58
2023-05-01T04:36:02.470Z,31.58
2023-05-01T04:37:02.511Z,31.56
2023-05-01T04:38:02.582Z,31.58
2023-05-01T04:39:02.609Z,31.58
2023-05-01T04:40:02.763Z,31.56
2023-05-01T04:41:02.785Z,31.58
2023-05-01T04:42:02.762Z,31.58
2023-05-01T04:43:02.816Z,31.56
2023-05-01T04:44:02.867Z,31.59
2023-05-01T04:45:02.920Z,31.60
2023-05-01T04:46:02.957Z,31.57
2023-05-01T04:47:03.134Z,31.58
2023-05-01T04:48:03.109Z,31.59
2023-05-01T04:49:03.105Z,31.58
2023-05-01T04:50:03.153Z,31.59
2023-05-01T04:51:03.261Z,31.58
2023-05-01T04:52:03.605Z,31.60
2023-05-01T04:53:03.319Z,31.59
2023-05-01T04:54:03.328Z,31.57
2023-05-01T04:55:03.379Z,31.60
2023-05-01T04:56:03.414Z,31.59
2023-05-01T04:57:03.462Z,31.59
2023-05-01T04:58:03.496Z,31.57
2023-05-01T04:59:03.573Z,31.61
2023-05-01T05:00:03.602Z,31.59
2023-05-01T05:01:03.679Z,31.57
2023-05-01T05:02:03.977Z,31.59
2023-05-01T05:03:03.886Z,31.59
2023-05-01T05:04:03.907Z,31.58
2023-05-01T05:05:03.837Z,31.59
2023-05-01T05:06:03.911Z,31.58
2023-05-01T05:07:03.934Z,31.60
2023-05-01T05:08:04.002Z,31.58
2023-05-01T05:09:04.021Z,31.59
2023-05-01T05:10:04.065Z,31.58
2023-05-01T05:11:04.179Z,31.59
2023-05-01T05:12:04.155Z,31.59
2023-05-01T05:13:04.201Z,31.57
2023-05-01T05:14:04.256Z,31.59
2023-05-01T05:15:04.291Z,31.57
2023-05-01T05:16:04.408Z,31.60
2023-05-01T05:17:04.384Z,31.58
2023-05-01T05:18:04.442Z,31.58
2023-05-01T05:19:04.467Z,31.59
2023-05-01T05:20:04.519Z,31.58
2023-05-01T05:21:04.553Z,31.57
2023-05-01T05:22:04.614Z,31.58
2023-05-01T05:23:04.649Z,31.58
2023-05-01T05:24:04.685Z,31.57
2023-05-01T05:25:04.733Z,31.57
2023-05-01T05:26:04.784Z,31.57
2023-05-01T05:27:04.820Z,31.56
2023-05-01T05:28:04.946Z,31.58
2023-05-01T05:29:04.962Z,31.58
2023-05-01T05:30:04.973Z,31.56
2023-05-01T05:31:05.003Z,31.57
2023-05-01T05:32:05.093Z,31.59
2023-05-01T05:33:05.144Z,31.57
2023-05-01T05:34:05.134Z,31.58
2023-05-01T05:35:05.186Z,31.58
2023-05-01T05:36:05.240Z,31.57
2023-05-01T05:37:05.286Z,31.57
2023-05-01T05:38:05.334Z,31.56
2023-05-01T05:39:05.365Z,31.57
2023-05-01T05:40:06.115Z,31.56
2023-05-01T05:41:05.463Z,31.55
2023-05-01T05:42:05.520Z,31.55
2023-05-01T05:43:05.549Z,31.54
2023-05-01T05:44:05.604Z,31.54
2023-05-01T05:45:05.640Z,31.54
2023-05-01T05:46:05.739Z,31.53
2023-05-01T05:47:05.767Z,31.53
2023-05-01T05:48:05.820Z,31.52
2023-05-01T05:49:05.828Z,31.53
2023-05-01T05:50:05.875Z,31.52
2023-05-01T05:51:05.917Z,31.52
2023-05-01T05:52:05.953Z,31.52
2023-05-01T05:53:06.002Z,31.51
2023-05-01T05:54:06.047Z,31.49
2023-05-01T05:55:06.083Z,31.52
2023-05-01T05:56:06.150Z,31.47
2023-05-01T05:57:06.187Z,31.48
2023-05-01T05:58:06.212Z,31.50
2023-05-01T05:59:06.249Z,31.49
2023-05-01T06:00:07.157Z,31.48
2023-05-01T06:01:06.337Z,31.47
2023-05-01T06:02:07.236Z,31.48
2023-05-01T06:03:06.555Z,31.47
2023-05-01T06:04:06.467Z,31.47
2023-05-01T06:05:06.540Z,31.43
2023-05-01T06:06:06.740Z,31.43
2023-05-01T06:07:06.576Z,31.46
2023-05-01T06:08:06.622Z,31.44
2023-05-01T06:09:06.660Z,31.45
2023-05-01T06:10:06.697Z,31.44
2023-05-01T06:11:06.738Z,31.44
2023-05-01T06:12:06.898Z,31.41
2023-05-01T06:13:13.179Z,31.42
2023-05-01T06:14:07.803Z,31.44
2023-05-01T06:15:06.798Z,31.43
2023-05-01T06:16:06.912Z,31.42
2023-05-01T06:17:06.782Z,31.41
2023-05-01T06:18:06.868Z,31.39
2023-05-01T06:19:06.780Z,31.40
2023-05-01T06:20:06.771Z,31.39
2023-05-01T06:21:06.758Z,31.39
2023-05-01T06:22:06.754Z,31.40
2023-05-01T06:23:06.741Z,31.38
2023-05-01T06:24:06.730Z,31.35
2023-05-01T06:25:06.745Z,31.36
2023-05-01T06:26:06.778Z,31.36
2023-05-01T06:27:06.820Z,31.35
2023-05-01T06:28:06.849Z,31.36
2023-05-01T06:29:06.878Z,31.32
2023-05-01T06:30:06.920Z,31.34
2023-05-01T06:31:06.986Z,31.33
2023-05-01T06:32:06.996Z,31.29
2023-05-01T06:33:07.054Z,31.30
2023-05-01T06:34:07.052Z,31.28
2023-05-01T06:35:07.092Z,31.28
2023-05-01T06:36:07.130Z,31.28
2023-05-01T06:37:07.177Z,31.29
2023-05-01T06:38:07.207Z,31.28
2023-05-01T06:39:07.242Z,31.30
2023-05-01T06:40:07.272Z,31.27
2023-05-01T06:41:07.301Z,31.28
2023-05-01T06:42:07.344Z,31.26
2023-05-01T06:43:07.376Z,31.27
2023-05-01T06:44:07.421Z,31.26
2023-05-01T06:45:07.437Z,31.25
2023-05-01T06:46:07.482Z,31.26
2023-05-01T06:47:07.630Z,31.27
2023-05-01T06:48:07.559Z,31.25
2023-05-01T06:49:07.548Z,31.24
2023-05-01T06:50:07.609Z,31.23
2023-05-01T06:51:07.598Z,31.26
2023-05-01T06:52:07.632Z,31.24
2023-05-01T06:53:07.665Z,31.22
2023-05-01T06:54:07.687Z,31.24
2023-05-01T06:55:07.732Z,31.22
2023-05-01T06:56:07.742Z,31.23
2023-05-01T06:57:07.781Z,31.22
2023-05-01T06:58:22.531Z,31.22
2023-05-01T06:59:08.803Z,31.23
2023-05-01T07:00:07.808Z,31.20
2023-05-01T07:01:07.853Z,31.19
2023-05-01T07:02:07.848Z,31.17
2023-05-01T07:03:07.835Z,31.18
2023-05-01T07:04:07.770Z,31.17
2023-05-01T07:05:07.761Z,31.14
2023-05-01T07:06:07.802Z,31.14
2023-05-01T07:07:07.746Z,31.13
2023-05-01T07:08:07.741Z,31.11
2023-05-01T07:09:07.730Z,31.14
2023-05-01T07:10:07.747Z,31.11
2023-05-01T07:11:07.721Z,31.11
2023-05-01T07:12:07.722Z,31.10
2023-05-01T07:13:07.721Z,31.09
2023-05-01T07:14:07.693Z,31.08
2023-05-01T07:15:07.686Z,31.06
2023-05-01T07:16:07.758Z,31.07
2023-05-01T07:17:07.684Z,31.07
2023-05-01T07:18:07.929Z,31.07
2023-05-01T07:19:07.726Z,31.07
2023-05-01T07:20:07.768Z,31.06
2023-05-01T07:21:07.761Z,31.04
2023-05-01T07:22:07.773Z,31.05
2023-05-01T07:23:07.887Z,31.07
2023-05-01T07:24:07.842Z,31.06
2023-05-01T07:25:07.842Z,31.07
2023-05-01T07:26:07.881Z,31.06
2023-05-01T07:27:07.885Z,31.06
2023-05-01T07:28:07.905Z,31.08
2023-05-01T07:29:07.934Z,31.08
2023-05-01T07:30:07.964Z,31.10
2023-05-01T07:31:08.008Z,31.07
2023-05-01T07:32:08.038Z,31.08
2023-05-01T07:33:08.108Z,31.06
2023-05-01T07:34:08.062Z,31.10
2023-05-01T07:35:08.067Z,31.06
2023-05-01T07:36:08.105Z,31.03
2023-05-01T07:37:08.139Z,31.06
2023-05-01T07:38:08.145Z,31.07
2023-05-01T07:39:08.182Z,31.07
2023-05-01T07:40:08.195Z,31.07
2023-05-01T07:41:08.216Z,31.06
2023-05-01T07:42:08.252Z,31.08
2023-05-01T07:43:08.311Z,31.06
2023-05-01T07:44:08.284Z,31.05
2023-05-01T07:45:08.308Z,31.07
2023-05-01T07:46:08.362Z,31.08
2023-05-01T07:47:08.347Z,31.05
2023-05-01T07:48:08.423Z,31.07
2023-05-01T07:49:08.376Z,31.05
2023-05-01T07:50:08.373Z,31.03
2023-05-01T07:51:09.175Z,31.05
2023-05-01T07:52:08.417Z,31.04
2023-05-01T07:53:08.444Z,31.03
2023-05-01T07:54:08.448Z,31.05
2023-05-01T07:55:08.480Z,31.05
2023-05-01T07:56:08.486Z,31.06
2023-05-01T07:57:08.520Z,31.05
2023-05-01T07:58:08.521Z,31.05
2023-05-01T07:59:08.523Z,31.07
2023-05-01T08:00:08.549Z,31.04
2023-05-01T08:01:08.572Z,31.05
2023-05-01T08:02:08.651Z,31.04
2023-05-01T08:03:08.897Z,31.05
2023-05-01T08:04:08.720Z,31.02
2023-05-01T08:05:08.668Z,31.03
2023-05-01T08:06:08.706Z,31.01
2023-05-01T08:07:08.712Z,31.03
2023-05-01T08:08:08.703Z,31.01
2023-05-01T08:09:08.713Z,31.00
2023-05-01T08:10:08.731Z,30.97
2023-05-01T08:11:08.732Z,30.98
2023-05-01T08:12:08.743Z,30.96
2023-05-01T08:13:08.753Z,30.97
2023-05-01T08:14:08.778Z,30.97
2023-05-01T08:15:08.796Z,30.97
2023-05-01T08:16:08.856Z,30.93
2023-05-01T08:17:08.822Z,30.94
2023-05-01T08:18:08.857Z,30.93
2023-05-01T08:19:08.847Z,30.90
2023-05-01T08:20:08.864Z,30.89
2023-05-01T08:21:08.884Z,30.88
2023-05-01T08:22:08.897Z,30.85
2023-05-01T08:23:08.912Z,30.85
2023-05-01T08:24:08.919Z,30.83
2023-05-01T08:25:08.941Z,30.84
2023-05-01T08:26:08.951Z,30.82
2023-05-01T08:27:08.976Z,30.80
2023-05-01T08:28:08.991Z,30.79
2023-05-01T08:29:09.010Z,30.79
2023-05-01T08:30:09.001Z,30.76
2023-05-01T08:31:09.171Z,30.74
2023-05-01T08:32:09.041Z,30.69
2023-05-01T08:33:09.073Z,30.69
2023-05-01T08:34:09.052Z,30.67
2023-05-01T08:35:09.054Z,30.68
2023-05-01T08:36:09.613Z,30.67
2023-05-01T08:37:09.080Z,30.66
2023-05-01T08:38:09.084Z,30.67
2023-05-01T08:39:09.084Z,30.67
2023-05-01T08:40:09.194Z,30.67
2023-05-01T08:41:09.116Z,30.63
2023-05-01T08:42:09.215Z,30.64
2023-05-01T08:43:09.232Z,30.65
2023-05-01T08:44:09.227Z,30.66
2023-05-01T08:45:09.267Z,30.67
2023-05-01T08:46:09.293Z,30.65
2023-05-01T08:47:09.330Z,30.67
2023-05-01T08:48:09.324Z,30.63
2023-05-01T08:49:09.294Z,30.64
2023-05-01T08:50:09.302Z,30.63
2023-05-01T08:51:09.310Z,30.60
2023-05-01T08:52:09.420Z,30.59
2023-05-01T08:53:09.388Z,30.59
2023-05-01T08:54:09.371Z,30.58
2023-05-01T08:55:09.385Z,30.54
2023-05-01T08:56:09.375Z,30.54
2023-05-01T08:57:10.363Z,30.52
2023-05-01T08:58:09.703Z,30.54
2023-05-01T08:59:09.412Z,30.51
2023-05-01T09:00:09.392Z,30.50
2023-05-01T09:01:09.451Z,30.51
2023-05-01T09:02:09.549Z,30.50
2023-05-01T09:03:09.463Z,30.48
2023-05-01T09:04:09.452Z,30.47
2023-05-01T09:05:09.475Z,30.44
2023-05-01T09:06:09.501Z,30.44
2023-05-01T09:07:09.493Z,30.39
2023-05-01T09:08:09.509Z,30.37
2023-05-01T09:09:09.451Z,30.38
2023-05-01T09:10:09.495Z,30.35
2023-05-01T09:11:09.583Z,30.32
2023-05-01T09:12:09.527Z,30.33
2023-05-01T09:13:09.544Z,30.32
2023-05-01T09:14:09.575Z,30.28
2023-05-01T09:15:09.637Z,30.28
2023-05-01T09:16:09.749Z,30.26
2023-05-01T09:17:09.774Z,30.25
2023-05-01T09:18:09.793Z,30.23
2023-05-01T09:19:09.792Z,30.21
2023-05-01T09:20:09.876Z,30.20
2023-05-01T09:21:09.883Z,30.18
2023-05-01T09:22:09.936Z,30.20
2023-05-01T09:23:10.001Z,30.19
2023-05-01T09:24:10.734Z,30.23
2023-05-01T09:25:10.101Z,30.27
2023-05-01T09:26:10.154Z,30.33
2023-05-01T09:27:10.206Z,30.35
2023-05-01T09:28:10.243Z,30.37
2023-05-01T09:29:10.281Z,30.38
2023-05-01T09:30:10.333Z,30.40
2023-05-01T09:31:10.356Z,30.41
2023-05-01T09:32:10.416Z,30.38
2023-05-01T09:33:10.486Z,30.37
2023-05-01T09:34:10.495Z,30.35
2023-05-01T09:35:10.535Z,30.35
2023-05-01T09:36:11.213Z,30.37
2023-05-01T09:37:10.609Z,30.39
2023-05-01T09:38:10.749Z,30.37
2023-05-01T09:39:10.784Z,30.38
2023-05-01T09:40:10.776Z,30.42
2023-05-01T09:41:10.799Z,30.43
2023-05-01T09:42:10.849Z,30.41
2023-05-01T09:43:11.824Z,30.39
2023-05-01T09:44:10.919Z,30.39
2023-05-01T09:45:10.936Z,30.38
2023-05-01T09:46:11.088Z,30.37
2023-05-01T09:47:11.049Z,30.39
2023-05-01T09:48:11.126Z,30.41
2023-05-01T09:49:11.073Z,30.39
2023-05-01T09:50:11.099Z,30.41
2023-05-01T09:51:11.116Z,30.43
2023-05-01T09:52:11.138Z,30.43
2023-05-01T09:53:11.177Z,30.43
2023-05-01T09:54:11.206Z,30.45
2023-05-01T09:55:11.218Z,30.48
2023-05-01T09:56:11.232Z,30.45
2023-05-01T09:57:11.257Z,30.44
2023-05-01T09:58:11.247Z,30.43
2023-05-01T09:59:11.273Z,30.39
2023-05-01T10:00:12.222Z,30.39
2023-05-01T10:01:11.403Z,30.42
2023-05-01T10:02:11.465Z,30.41
2023-05-01T10:03:11.525Z,30.43
2023-05-01T10:04:11.534Z,30.38
2023-05-01T10:05:11.646Z,30.37
2023-05-01T10:06:11.686Z,30.34
2023-05-01T10:07:11.695Z,30.31
2023-05-01T10:08:11.738Z,30.29
2023-05-01T10:09:11.793Z,30.23
2023-05-01T10:10:11.836Z,30.21
2023-05-01T10:11:11.884Z,30.19
2023-05-01T10:12:12.005Z,30.17
2023-05-01T10:13:12.024Z,30.19
2023-05-01T10:14:12.096Z,30.20
2023-05-01T10:15:24.785Z,30.22
2023-05-01T10:16:13.158Z,30.24
2023-05-01T10:17:12.233Z,30.23
2023-05-01T10:18:12.329Z,30.26
2023-05-01T10:19:12.118Z,30.27
2023-05-01T10:20:12.162Z,30.27
2023-05-01T10:21:12.100Z,30.28
2023-05-01T10:22:12.084Z,30.29
2023-05-01T10:23:12.106Z,30.30
2023-05-01T10:24:12.084Z,30.30
2023-05-01T10:25:12.120Z,30.30
2023-05-01T10:26:12.124Z,30.31
2023-05-01T10:27:12.179Z,30.34
2023-05-01T10:28:12.231Z,30.35
2023-05-01T10:29:12.290Z,30.36
2023-05-01T10:30:12.333Z,30.36
2023-05-01T10:31:12.439Z,30.37
2023-05-01T10:32:12.433Z,30.38
2023-05-01T10:33:12.596Z,30.37
2023-05-01T10:34:12.509Z,30.37
2023-05-01T10:35:12.544Z,30.37
2023-05-01T10:36:12.595Z,30.33
2023-05-01T10:37:12.662Z,30.33
2023-05-01T10:38:12.695Z,30.34
2023-05-01T10:39:12.749Z,30.36
2023-05-01T10:40:12.797Z,30.35
2023-05-01T10:41:12.843Z,30.35
2023-05-01T10:42:12.955Z,30.33
2023-05-01T10:43:12.978Z,30.34
2023-05-01T10:44:13.036Z,30.37
2023-05-01T10:45:13.079Z,30.36
2023-05-01T10:46:13.221Z,30.36
2023-05-01T10:47:13.151Z,30.39
2023-05-01T10:48:13.223Z,30.38
2023-05-01T10:49:13.271Z,30.40
2023-05-01T10:50:13.331Z,30.39
2023-05-01T10:51:13.372Z,30.40
2023-05-01T10:52:13.479Z,30.41
2023-05-01T10:53:13.466Z,30.42
2023-05-01T10:54:13.501Z,30.45
2023-05-01T10:55:13.537Z,30.45
2023-05-01T10:56:13.577Z,30.46
2023-05-01T10:57:13.597Z,30.48
2023-05-01T10:58:13.650Z,30.50
2023-05-01T10:59:13.668Z,30.51
2023-05-01T11:00:13.702Z,30.51
2023-05-01T11:01:13.749Z,30.51
2023-05-01T11:02:13.902Z,30.50
2023-05-01T11:03:13.872Z,30.50
2023-05-01T11:04:13.879Z,30.50
2023-05-01T11:05:13.957Z,30.51
2023-05-01T11:06:14.113Z,30.51
2023-05-01T11:07:14.126Z,30.51
2023-05-01T11:08:14.028Z,30.49
2023-05-01T11:09:14.036Z,30.49
2023-05-01T11:10:14.129Z,30.50
2023-05-01T11:11:14.132Z,30.52
2023-05-01T11:12:14.078Z,30.50
2023-05-01T11:13:14.084Z,30.48
2023-05-01T11:14:14.773Z,30.49
2023-05-01T11:15:14.081Z,30.52
2023-05-01T11:16:14.129Z,30.52
2023-05-01T11:17:14.073Z,30.53
2023-05-01T11:18:14.108Z,30.50
2023-05-01T11:19:14.072Z,30.53
2023-05-01T11:20:14.108Z,30.53
2023-05-01T11:21:14.100Z,30.53
2023-05-01T11:22:14.117Z,30.52
2023-05-01T11:23:14.108Z,30.55
2023-05-01T11:24:14.124Z,30.55
2023-05-01T11:25:14.135Z,30.56
2023-05-01T11:26:14.152Z,30.56
2023-05-01T11:27:14.148Z,30.56
2023-05-01T11:28:14.157Z,30.56
2023-05-01T11:29:14.151Z,30.57
2023-05-01T11:30:14.244Z,30.59
2023-05-01T11:31:14.309Z,30.56
2023-05-01T11:32:14.400Z,30.58
2023-05-01T11:33:14.803Z,30.59
2023-05-01T11:34:14.285Z,30.58
2023-05-01T11:35:14.281Z,30.59
2023-05-01T11:36:14.343Z,30.56
2023-05-01T11:37:14.336Z,30.56
2023-05-01T11:38:14.271Z,30.55
2023-05-01T11:39:14.260Z,30.56
2023-05-01T11:40:14.259Z,30.57
2023-05-01T11:41:14.767Z,30.55
2023-05-01T11:42:14.816Z,30.56
2023-05-01T11:43:14.265Z,30.56
2023-05-01T11:44:14.769Z,30.58
2023-05-01T11:45:14.259Z,30.58
2023-05-01T11:46:14.292Z,30.59
2023-05-01T11:47:14.259Z,30.59
2023-05-01T11:48:14.317Z,30.62
2023-05-01T11:49:14.241Z,30.65
2023-05-01T11:50:14.252Z,30.66
2023-05-01T11:51:14.253Z,30.65
2023-05-01T11:52:14.239Z,30.69
2023-05-01T11:53:14.235Z,30.69
2023-05-01T11:54:15.812Z,30.71
2023-05-01T11:55:14.312Z,30.70
2023-05-01T11:56:25.455Z,30.72
2023-05-01T11:57:15.770Z,30.76
2023-05-01T11:58:14.361Z,30.79
2023-05-01T11:59:14.307Z,30.78
2023-05-01T12:00:14.300Z,30.79
2023-05-01T12:01:14.296Z,30.81
2023-05-01T12:02:14.312Z,30.80
2023-05-01T12:03:14.738Z,30.84
2023-05-01T12:04:14.343Z,30.85
2023-05-01T12:05:14.258Z,30.88
2023-05-01T12:06:14.316Z,30.86
2023-05-01T12:07:14.260Z,30.90
2023-05-01T12:08:14.249Z,30.92
2023-05-01T12:09:14.230Z,30.90
2023-05-01T12:10:14.222Z,30.90
2023-05-01T12:11:14.224Z,30.93
2023-05-01T12:12:14.224Z,30.95
2023-05-01T12:13:14.244Z,30.97
2023-05-01T12:14:14.257Z,30.98
2023-05-01T12:15:14.284Z,31.00
2023-05-01T12:16:14.288Z,31.00
2023-05-01T12:17:14.383Z,31.00
2023-05-01T12:18:14.569Z,31.02
2023-05-01T12:19:14.359Z,31.03
2023-05-01T12:20:14.443Z,31.03
2023-05-01T12:21:14.376Z,31.05
2023-05-01T12:22:14.395Z,31.06
2023-05-01T12:23:14.408Z,31.06
2023-05-01T12:24:14.452Z,31.06
2023-05-01T12:25:14.457Z,31.07
2023-05-01T12:26:14.504Z,31.08
2023-05-01T12:27:14.486Z,31.09
2023-05-01T12:28:14.507Z,31.13
2023-05-01T12:29:14.538Z,31.13
2023-05-01T12:30:15.292Z,31.15
2023-05-01T12:31:14.667Z,31.12
2023-05-01T12:32:14.666Z,31.16
2023-05-01T12:33:14.676Z,31.16
2023-05-01T12:34:14.632Z,31.19
2023-05-01T12:35:14.685Z,31.21
2023-05-01T12:36:15.292Z,31.21
2023-05-01T12:37:14.709Z,31.25
2023-05-01T12:38:14.728Z,31.23
2023-05-01T12:39:14.736Z,31.23
2023-05-01T12:40:14.748Z,31.23
2023-05-01T12:41:14.773Z,31.26
2023-05-01T12:42:15.292Z,31.24
2023-05-01T12:43:14.797Z,31.26
2023-05-01T12:44:14.799Z,31.25
2023-05-01T12:45:14.816Z,31.24
2023-05-01T12:46:14.844Z,31.27
2023-05-01T12:47:14.830Z,31.28
2023-05-01T12:48:14.923Z,31.29
2023-05-01T12:49:14.854Z,31.29
2023-05-01T12:50:14.871Z,31.30
2023-05-01T12:51:14.890Z,31.29
2023-05-01T12:52:14.901Z,31.31
2023-05-01T12:53:14.922Z,31.31